Metar GG30 METAR message from awiacja.imgw.pl Metar G30 EPGD METAR EPGD 240430Z 14010KT 1400 R29/2000N BR OVC001 09/09 Q1016 =